Stations météo

réclame
Mon MeteoGroup
Hupsel aws, Pays-Bas (6283): Température de l'air & dewpoint: 14.11.2017 01:00:00 - 20.11.2017 01:00:00 (CET)Hupsel aws, Pays-Bas (6283): Température de l'air 5cm: 14.11.2017 01:00:00 - 20.11.2017 01:00:00 (CET)Hupsel aws, Pays-Bas (6283): Vitesse du vent & gusts: 14.11.2017 01:00:00 - 20.11.2017 01:00:00 (CET)Hupsel aws, Pays-Bas (6283): Direction du vent: 14.11.2017 01:00:00 - 20.11.2017 01:00:00 (CET)Hupsel aws, Pays-Bas (6283): Quantités de précipitations: 14.11.2017 01:00:00 - 20.11.2017 01:00:00 (CET)
Date & Time tt [°C] td [°C] tt 5cm [°C] ff [km/h] ff [knt] fx [km/h] fx [knt] dd rr [mm]
20.11.2017 01:00:00 - - - - - - - - -
20.11.2017 00:00:00 3,9 3,1 2,6 11 6 18 10 SW 0,0
19.11.2017 23:00:00 5,2 3,7 3,5 11 6 22 12 WSW 0,0
19.11.2017 22:00:00 4,4 3,3 3,0 11 6 - - WSW 0,0
19.11.2017 21:00:00 4,6 3,2 3,0 14 8 22 12 WSW 0,0
19.11.2017 20:00:00 4,8 3,0 3,2 11 6 22 12 WSW 0,0
19.11.2017 19:00:00 5,4 3,1 3,7 11 6 - - W 0,0
19.11.2017 18:00:00 5,7 3,6 3,9 11 6 25 14 W 0,0
19.11.2017 17:00:00 6,5 3,4 4,6 14 8 29 16 W 0,0
19.11.2017 16:00:00 7,6 4,1 6,2 14 8 - - W 0,0
19.11.2017 15:00:00 8,8 3,8 8,2 22 12 43 23 WNW 0,0
19.11.2017 14:00:00 8,7 4,5 8,0 25 14 40 21 W 0,0
19.11.2017 13:00:00 8,6 4,2 7,9 25 14 - - W 0,0
19.11.2017 12:00:00 7,7 4,9 6,8 14 8 36 19 W 0,0
19.11.2017 11:00:00 6,5 3,7 5,7 22 12 43 23 W 0,0
19.11.2017 10:00:00 6,0 3,1 4,3 14 8 - - W 0,0
19.11.2017 09:00:00 4,2 3,0 3,0 11 6 22 12 WSW 0,0
19.11.2017 08:00:00 3,5 2,5 2,1 14 8 22 12 WSW 0,0
19.11.2017 07:00:00 3,6 2,6 2,4 14 8 - - WSW 0,0
19.11.2017 06:00:00 4,1 2,7 2,6 11 6 25 14 W 0,4
19.11.2017 05:00:00 4,0 2,4 3,0 7 4 22 12 W 0,0
19.11.2017 04:00:00 3,6 2,4 2,3 14 8 - - WSW 0,0
19.11.2017 03:00:00 3,0 2,0 1,8 11 6 14 8 WSW 0,0
19.11.2017 02:00:00 4,3 2,9 3,3 11 6 18 10 WSW 0,0
19.11.2017 01:00:00 4,9 3,7 4,0 11 6 - - WSW 0,0
19.11.2017 00:00:00 4,8 3,7 3,9 11 6 18 10 WSW 0,0
18.11.2017 23:00:00 5,2 3,6 4,2 11 6 18 10 WSW 0,0
18.11.2017 22:00:00 4,7 3,7 3,7 11 6 - - WSW 0,0
18.11.2017 21:00:00 5,0 3,8 4,1 11 6 18 10 WSW 0,0
18.11.2017 20:00:00 5,3 4,1 4,5 11 6 22 12 WSW 0,0
18.11.2017 19:00:00 5,2 4,4 4,5 11 6 - - WSW 0,0
18.11.2017 18:00:00 5,6 4,8 4,9 7 4 18 10 W 0,0
18.11.2017 17:00:00 5,2 4,6 4,7 7 4 18 10 WSW 0,3
18.11.2017 16:00:00 5,5 4,0 4,6 14 8 - - W 3,2
18.11.2017 15:00:00 6,4 3,6 7,1 40 21 54 29 NW 0,0
18.11.2017 14:00:00 7,2 5,2 6,1 29 16 43 23 SW 0,4
18.11.2017 13:00:00 6,9 4,4 6,2 29 16 - - WSW 0,2
18.11.2017 12:00:00 7,3 4,1 6,9 22 12 43 23 SW 0,0
18.11.2017 11:00:00 6,5 3,2 6,1 18 10 36 19 SW 0,0
18.11.2017 10:00:00 6,1 2,7 5,5 18 10 - - SW 0,0
18.11.2017 09:00:00 5,7 2,4 4,7 14 8 25 14 SSW 0,0
18.11.2017 08:00:00 5,3 2,4 4,5 11 6 25 14 SSW 0,0
18.11.2017 07:00:00 5,3 2,3 4,4 11 6 - - SW 0,0
18.11.2017 06:00:00 5,4 2,1 4,3 11 6 22 12 SSW 0,0
18.11.2017 05:00:00 5,5 2,2 4,3 11 6 22 12 SW 0,0
18.11.2017 04:00:00 5,4 2,4 4,1 11 6 - - SSW 0,0
18.11.2017 03:00:00 4,8 2,5 3,8 7 4 18 10 SW 0,0
18.11.2017 02:00:00 4,9 2,3 3,5 7 4 18 10 SSW 0,0
18.11.2017 01:00:00 4,2 2,5 2,0 7 4 - - SW 0,0
18.11.2017 00:00:00 3,2 1,8 -0,4 4 2 11 6 SSW 0,0
17.11.2017 23:00:00 2,9 1,7 -0,5 7 4 11 6 SW 0,0
17.11.2017 22:00:00 3,0 1,7 0,4 4 2 - - SSW 0,0
17.11.2017 21:00:00 3,9 2,5 1,6 4 2 7 4 SSW 0,0
17.11.2017 20:00:00 4,4 2,4 1,9 4 2 7 4 SSW 0,0
17.11.2017 19:00:00 5,5 3,1 2,9 7 4 - - SW 0,0
17.11.2017 18:00:00 3,2 1,9 0,6 4 2 7 4 SSW 0,0
17.11.2017 17:00:00 5,4 2,3 1,9 4 2 7 4 S 0,0
17.11.2017 16:00:00 7,9 3,2 4,9 4 2 - - WSW 0,0
17.11.2017 15:00:00 9,2 3,2 7,3 7 4 18 10 W 0,0
17.11.2017 14:00:00 10,0 2,1 8,5 7 4 14 8 W 0,0
17.11.2017 13:00:00 10,2 5,1 8,8 4 2 - - WSW 0,0
17.11.2017 12:00:00 9,0 5,2 7,8 4 2 7 4 WSW 0,0
17.11.2017 11:00:00 6,9 4,9 6,8 4 2 7 4 W 0,0
17.11.2017 10:00:00 4,5 4,2 2,4 4 2 - - SSW 0,0
17.11.2017 09:00:00 1,9 1,9 -0,9 4 2 4 2 SW 0,0
17.11.2017 08:00:00 0,7 0,5 -1,4 4 2 4 2 W 0,0
17.11.2017 07:00:00 1,8 1,7 -0,6 4 2 - - WNW 0,0
17.11.2017 06:00:00 2,2 2,0 0,7 4 2 7 4 W 0,0
17.11.2017 05:00:00 4,0 3,8 1,7 7 4 11 6 NW 0,0
17.11.2017 04:00:00 4,9 4,7 3,5 7 4 - - NW 0,0
17.11.2017 03:00:00 6,4 6,3 5,1 7 4 14 8 NW 0,0
17.11.2017 02:00:00 8,1 7,9 7,4 7 4 11 6 WNW 0,0
17.11.2017 01:00:00 8,4 7,9 7,8 7 4 - - NW 0,0
17.11.2017 00:00:00 9,2 8,4 8,7 14 8 22 12 NW 0,3
16.11.2017 23:00:00 9,6 9,4 9,1 11 6 14 8 SW 0,0
16.11.2017 22:00:00 9,5 9,4 9,1 11 6 - - SW 0,0
16.11.2017 21:00:00 9,4 9,2 9,2 11 6 22 12 SW 0,0
16.11.2017 20:00:00 9,1 9,0 9,0 7 4 18 10 SSW 0,0
16.11.2017 19:00:00 8,8 8,7 8,6 7 4 - - SSW 0,0
16.11.2017 18:00:00 8,3 8,2 8,3 7 4 18 10 SSW 0,0
16.11.2017 17:00:00 8,2 7,9 8,2 11 6 18 10 SSW 0,0
16.11.2017 16:00:00 8,3 7,6 8,3 11 6 - - S 0,0
16.11.2017 15:00:00 8,4 7,5 8,6 14 8 22 12 S 0,0
16.11.2017 14:00:00 8,4 7,7 8,7 11 6 22 12 S 0,0
16.11.2017 13:00:00 8,7 7,1 9,0 11 6 - - S 0,0
16.11.2017 12:00:00 8,9 7,5 9,0 11 6 22 12 S 0,0
16.11.2017 11:00:00 8,7 7,8 9,7 14 8 22 12 S 0,0
16.11.2017 10:00:00 8,5 8,3 8,7 11 6 - - S 0,0
16.11.2017 09:00:00 8,5 8,4 8,5 11 6 18 10 S 0,0
16.11.2017 08:00:00 8,5 8,4 8,5 11 6 22 12 S 0,0
16.11.2017 07:00:00 8,6 8,5 8,6 11 6 - - S 0,0
16.11.2017 06:00:00 8,7 8,6 8,6 7 4 18 10 S 0,0
16.11.2017 05:00:00 8,7 8,6 8,7 11 6 18 10 S 0,0
16.11.2017 04:00:00 8,8 8,7 8,8 11 6 - - S 0,0
16.11.2017 03:00:00 8,8 8,7 8,8 7 4 14 8 S 0,0
16.11.2017 02:00:00 8,8 8,7 8,8 7 4 14 8 S 0,0
16.11.2017 01:00:00 8,7 8,6 8,7 11 6 - - S 0,0
16.11.2017 00:00:00 8,7 8,6 8,7 7 4 14 8 S 0,0
15.11.2017 23:00:00 8,7 8,6 8,6 4 2 14 8 S 0,0
15.11.2017 22:00:00 8,8 8,7 8,6 7 4 - - S 0,0
15.11.2017 21:00:00 8,7 8,6 8,5 7 4 11 6 S 0,0
15.11.2017 20:00:00 8,6 8,4 8,3 4 2 11 6 S 0,0
15.11.2017 19:00:00 8,5 8,3 7,8 7 4 - - S 0,0
15.11.2017 18:00:00 8,7 8,4 8,5 7 4 14 8 S 0,0
15.11.2017 17:00:00 8,7 8,4 8,6 7 4 11 6 S 0,0
15.11.2017 16:00:00 8,6 8,5 8,7 7 4 - - S 0,0
15.11.2017 15:00:00 8,7 8,5 8,9 7 4 14 8 S 0,0
15.11.2017 14:00:00 8,6 8,3 9,2 11 6 14 8 S 0,0
15.11.2017 13:00:00 8,7 8,2 9,4 11 6 - - S 0,0
15.11.2017 12:00:00 8,4 8,0 9,0 7 4 18 10 S 0,0
15.11.2017 11:00:00 8,3 7,8 8,9 11 6 18 10 SSW 0,0
15.11.2017 10:00:00 8,3 7,7 8,9 11 6 - - SSW 0,0
15.11.2017 09:00:00 7,9 7,6 7,9 7 4 18 10 SSW 0,0
15.11.2017 08:00:00 7,8 7,4 7,6 7 4 18 10 SSW 0,0
15.11.2017 07:00:00 7,7 7,4 7,5 11 6 - - SSW 0,0
15.11.2017 06:00:00 7,7 7,3 7,5 7 4 18 10 SSW 0,0
15.11.2017 05:00:00 7,8 7,2 7,5 11 6 18 10 S 0,0
15.11.2017 04:00:00 7,9 7,2 7,6 7 4 - - SSW 0,0
15.11.2017 03:00:00 8,0 7,3 7,7 11 6 18 10 S 0,0
15.11.2017 02:00:00 8,1 7,1 7,6 7 4 14 8 SSW 0,0
15.11.2017 01:00:00 8,1 7,3 7,7 7 4 - - SSW 0,0
15.11.2017 00:00:00 8,1 7,4 7,7 11 6 18 10 S 0,0
14.11.2017 23:00:00 8,2 7,5 7,7 7 4 18 10 SSW 0,0
14.11.2017 22:00:00 8,0 7,6 7,6 7 4 - - SW 0,0
14.11.2017 21:00:00 7,7 7,6 7,5 7 4 18 10 SSW 0,0
14.11.2017 20:00:00 7,6 7,4 7,4 7 4 18 10 SSW 0,0
14.11.2017 19:00:00 7,6 7,2 7,3 11 6 - - SSW 0,0
14.11.2017 18:00:00 7,5 6,9 7,2 11 6 22 12 SSW 0,0
14.11.2017 17:00:00 7,6 6,7 7,2 11 6 25 14 SW 0,0
14.11.2017 16:00:00 7,7 5,8 7,2 7 4 - - SSW 0,0
14.11.2017 15:00:00 8,0 5,4 7,7 11 6 25 14 SSW 0,0
14.11.2017 14:00:00 7,9 4,7 7,4 11 6 29 16 SSW 0,0
14.11.2017 13:00:00 7,7 4,5 7,8 14 8 - - SSW 0,0
14.11.2017 12:00:00 7,1 4,3 7,2 14 8 29 16 SSW 0,0
14.11.2017 11:00:00 6,1 4,6 6,3 11 6 25 14 SSW 0,0
14.11.2017 10:00:00 5,6 4,3 5,5 14 8 - - SSW 0,0
14.11.2017 09:00:00 4,7 3,7 4,3 11 6 22 12 SSW 0,0
14.11.2017 08:00:00 4,3 3,3 3,7 7 4 18 10 SSW 0,0
14.11.2017 07:00:00 4,2 3,2 2,8 11 6 - - SW 0,0
14.11.2017 06:00:00 2,8 2,1 1,0 7 4 11 6 SSW 0,0
14.11.2017 05:00:00 2,6 2,1 0,7 7 4 11 6 SSW 0,0
14.11.2017 04:00:00 2,4 2,0 0,4 7 4 - - SSW 0,0
14.11.2017 03:00:00 1,3 1,1 -0,5 4 2 11 6 SW 0,0
14.11.2017 02:00:00 1,6 1,4 -0,4 7 4 11 6 WSW 0,0
14.11.2017 01:00:00 1,2 1,0 -1,2 7 4 - - SW 0,0

tt = Température de l'air
td = dewpoint
tt 5cm = Température de l'air 5cm
ff = Vitesse du vent
fx = gusts
dd = Direction du vent
rr = Quantités de précipitations

stations d'obs. à proximité